createdAt,value
2018-04-06T10:44:32.020Z,40.80
2018-04-06T10:46:59.532Z,41.40
2018-04-06T10:49:26.990Z,41.70
2018-04-06T10:51:54.435Z,41.30
2018-04-06T10:54:21.923Z,40.90
2018-04-06T10:56:49.388Z,40.20
2018-04-06T10:59:20.727Z,40.60
2018-04-06T11:01:48.199Z,40.40
2018-04-06T11:04:15.711Z,41.20
2018-04-06T11:06:43.163Z,41.60
2018-04-06T11:09:10.651Z,41.70
2018-04-06T11:11:38.100Z,41.70
2018-04-06T11:14:05.587Z,41.10
2018-04-06T11:16:33.035Z,41.60
2018-04-06T11:19:00.476Z,40.30
2018-04-06T11:21:27.954Z,41.60
2018-04-06T11:23:55.407Z,39.80
2018-04-06T11:26:22.879Z,39.30
2018-04-06T11:28:50.316Z,39.70
2018-04-06T11:31:17.747Z,39.90
2018-04-06T11:33:45.247Z,39.30
2018-04-06T11:36:12.707Z,39.00
2018-04-06T11:38:40.163Z,39.10
2018-04-06T11:41:07.607Z,40.00
2018-04-06T11:43:35.058Z,39.80
2018-04-06T11:46:02.499Z,41.00
2018-04-06T11:48:29.979Z,39.70
2018-04-06T11:50:57.412Z,39.40
2018-04-06T11:53:24.879Z,39.80
2018-04-06T11:55:52.343Z,39.60
2018-04-06T11:58:19.799Z,39.80
2018-04-06T12:00:47.259Z,40.10
2018-04-06T12:03:14.774Z,40.00
2018-04-06T12:05:42.204Z,40.40
2018-04-06T12:08:09.663Z,40.60
2018-04-06T12:10:37.115Z,40.70
2018-04-06T12:13:05.363Z,40.90
2018-04-06T12:15:32.791Z,40.90
2018-04-06T12:18:00.255Z,41.10
2018-04-06T12:20:27.715Z,40.80
2018-04-06T12:22:55.170Z,40.10
2018-04-06T12:25:22.619Z,39.80
2018-04-06T12:27:50.055Z,39.20
2018-04-06T12:30:17.563Z,40.10
2018-04-06T12:32:45.791Z,40.30
2018-04-06T12:35:13.284Z,39.80
2018-04-06T12:37:40.738Z,40.00
2018-04-06T12:40:08.171Z,40.30
2018-04-06T12:42:35.648Z,40.60
2018-04-06T12:45:03.108Z,41.10
2018-04-06T12:47:30.543Z,40.90
2018-04-06T12:52:31.990Z,40.90
2018-04-06T12:54:59.433Z,41.10
2018-04-06T12:57:26.904Z,40.90
2018-04-06T12:59:54.344Z,40.60
2018-04-06T13:02:21.780Z,40.90
2018-04-06T13:04:49.232Z,41.30
2018-04-06T13:07:17.432Z,41.30
2018-04-06T13:09:44.925Z,41.30
2018-04-06T13:12:12.359Z,41.50
2018-04-06T13:14:40.604Z,41.70
2018-04-06T13:17:09.867Z,41.30
2018-04-06T13:19:37.360Z,41.40
2018-04-06T13:22:04.818Z,40.70
2018-04-06T13:24:32.991Z,41.60
2018-04-06T13:27:00.468Z,41.50
2018-04-06T13:29:27.923Z,41.60
2018-04-06T13:31:55.399Z,41.90
2018-04-06T13:34:22.836Z,41.90
2018-04-06T13:36:50.287Z,42.20
2018-04-06T13:39:17.751Z,42.30
2018-04-06T13:41:45.223Z,42.00
2018-04-06T13:44:12.683Z,42.40
2018-04-06T13:46:40.190Z,45.20
2018-04-06T13:49:08.383Z,46.20
2018-04-06T13:51:35.946Z,46.20
2018-04-06T13:54:03.395Z,43.80
2018-04-06T13:56:30.852Z,41.00
2018-04-06T14:01:48.617Z,21.10
2018-04-06T14:04:16.072Z,21.10
2018-04-06T14:06:43.585Z,22.30
2018-04-06T14:09:11.809Z,24.30
2018-04-06T14:11:39.253Z,24.30
2018-04-06T14:14:06.857Z,26.00
2018-04-06T14:16:35.069Z,25.90
2018-04-06T14:19:02.559Z,25.60
2018-04-06T14:21:30.008Z,26.80
2018-04-06T14:23:57.448Z,27.00
2018-04-06T14:26:24.907Z,27.00
2018-04-06T14:28:52.372Z,27.70
2018-04-06T14:31:19.873Z,26.70
2018-04-06T14:33:47.308Z,27.20
2018-04-06T14:36:14.759Z,27.50
2018-04-06T14:38:42.220Z,27.40
2018-04-06T14:41:09.683Z,27.90
2018-04-06T14:43:37.132Z,27.50
2018-04-06T14:46:05.137Z,27.60
2018-04-06T14:48:33.359Z,28.10
2018-04-06T14:51:00.832Z,28.10
2018-04-06T14:53:28.311Z,27.70
2018-04-06T14:55:56.560Z,28.30
2018-04-06T14:58:24.024Z,28.30
2018-04-06T15:00:51.492Z,30.40
2018-04-06T15:03:18.976Z,29.50
2018-04-06T15:05:46.440Z,29.60
2018-04-06T15:08:13.877Z,29.10
2018-04-06T15:10:42.104Z,29.40
2018-04-06T15:13:09.567Z,29.40
2018-04-06T15:15:37.040Z,29.80
2018-04-06T15:18:04.495Z,28.90
2018-04-06T15:20:31.974Z,28.60
2018-04-06T15:23:00.213Z,29.10
2018-04-06T15:25:27.696Z,29.50
2018-04-06T15:27:55.131Z,28.70
2018-04-06T15:30:22.578Z,28.70
2018-04-06T15:32:50.080Z,28.60
2018-04-06T15:35:17.543Z,28.70
2018-04-06T15:37:45.931Z,28.40
2018-04-06T15:40:13.400Z,28.20
2018-04-06T15:42:40.859Z,28.70
2018-04-06T15:45:09.333Z,28.90
2018-04-06T15:47:36.811Z,27.70
2018-04-06T15:50:04.275Z,27.60
2018-04-06T15:52:31.733Z,28.60
2018-04-06T15:54:59.195Z,27.20
2018-04-06T15:57:26.651Z,27.70
2018-04-06T15:59:54.154Z,29.00
2018-04-06T16:02:21.640Z,29.00
2018-04-06T16:04:49.122Z,28.80
2018-04-06T16:07:16.594Z,28.90
2018-04-06T16:09:44.831Z,29.90
2018-04-06T16:12:12.272Z,29.90
2018-04-06T16:14:39.748Z,29.40
2018-04-06T16:17:07.235Z,29.90
2018-04-06T16:19:35.447Z,30.00
2018-04-06T16:22:03.012Z,29.90
2018-04-06T16:24:30.500Z,28.10
2018-04-06T16:26:57.964Z,28.80
2018-04-06T16:29:25.462Z,28.20
2018-04-06T16:31:52.931Z,29.10
2018-04-06T16:34:20.393Z,28.90
2018-04-06T16:36:48.834Z,29.50
2018-04-06T16:39:17.107Z,29.40
2018-04-06T16:41:45.348Z,29.90
2018-04-06T16:44:12.835Z,29.80
2018-04-06T16:46:40.304Z,30.20
2018-04-06T16:49:07.760Z,29.90
2018-04-06T16:51:36.008Z,31.00
2018-04-06T16:54:03.484Z,31.00
2018-04-06T16:56:31.712Z,31.50
2018-04-06T16:58:59.185Z,31.50
2018-04-06T17:01:26.877Z,30.40
2018-04-06T17:03:56.295Z,31.10
2018-04-06T17:06:23.772Z,31.10
2018-04-06T17:08:51.229Z,30.80
2018-04-06T17:11:18.731Z,32.40
2018-04-06T17:13:46.974Z,32.90
2018-04-06T17:16:14.460Z,33.40
2018-04-06T17:18:41.985Z,34.80
2018-04-06T17:21:09.474Z,32.00
2018-04-06T17:23:36.960Z,31.90
2018-04-06T17:26:05.209Z,32.40
2018-04-06T17:28:32.657Z,32.30
2018-04-06T17:31:00.145Z,33.40
2018-04-06T17:33:27.607Z,33.10
2018-04-06T17:35:55.096Z,32.60
2018-04-06T17:38:22.580Z,33.90
2018-04-06T17:40:50.060Z,33.10
2018-04-06T17:43:18.339Z,35.80
2018-04-06T17:45:46.582Z,33.70
2018-04-06T17:48:14.072Z,33.60
2018-04-06T17:50:43.017Z,34.50
2018-04-06T17:53:10.483Z,34.40
2018-04-06T17:55:37.989Z,36.90
2018-04-06T17:58:05.477Z,34.60
2018-04-06T18:00:32.949Z,35.30
2018-04-06T18:03:00.416Z,35.20
2018-04-06T18:05:27.885Z,36.70
2018-04-06T18:07:55.369Z,35.90
2018-04-06T18:10:22.877Z,36.50
2018-04-06T18:12:50.364Z,35.60
2018-04-06T18:15:17.862Z,36.90
2018-04-06T18:17:45.356Z,36.10
2018-04-06T18:20:12.864Z,36.20
2018-04-06T18:22:40.321Z,38.20
2018-04-06T18:25:07.780Z,37.90
2018-04-06T18:27:35.255Z,39.80
2018-04-06T18:30:02.719Z,38.50
2018-04-06T18:32:30.209Z,38.00
2018-04-06T18:34:58.482Z,39.60
2018-04-06T18:37:25.968Z,39.00
2018-04-06T18:39:53.420Z,39.20
2018-04-06T18:42:20.897Z,38.80
2018-04-06T18:44:48.423Z,38.40
2018-04-06T18:47:15.856Z,39.00
2018-04-06T18:49:43.340Z,40.40
2018-04-06T18:52:11.641Z,41.40
2018-04-06T18:54:39.063Z,41.40
2018-04-06T18:57:07.337Z,41.50
2018-04-06T18:59:35.609Z,41.10
2018-04-06T19:02:03.914Z,40.20
2018-04-06T19:04:31.504Z,40.10
2018-04-06T19:06:58.991Z,41.70
2018-04-06T19:09:27.238Z,41.80
2018-04-06T19:11:54.742Z,41.80
2018-04-06T19:14:23.004Z,41.50
2018-04-06T19:16:51.230Z,43.80
2018-04-06T19:19:18.729Z,43.80
2018-04-06T19:21:46.201Z,41.30
2018-04-06T19:24:14.465Z,41.30
2018-04-06T19:26:42.733Z,41.50
2018-04-06T19:29:10.200Z,41.40
2018-04-06T19:31:38.452Z,40.50
2018-04-06T19:34:05.924Z,40.40
2018-04-06T19:36:33.410Z,40.50
2018-04-06T19:39:00.884Z,41.20
2018-04-06T19:41:28.414Z,40.50
2018-04-06T19:43:55.906Z,41.70
2018-04-06T19:46:24.108Z,42.80
2018-04-06T19:48:51.584Z,42.80
2018-04-06T19:51:19.044Z,41.50
2018-04-06T19:53:47.276Z,41.60
2018-04-06T19:56:14.792Z,41.50
2018-04-06T19:58:42.995Z,42.40
2018-04-06T20:01:10.476Z,42.40
2018-04-06T20:03:37.957Z,42.00
2018-04-06T20:06:06.374Z,41.60
2018-04-06T20:08:33.863Z,41.50
2018-04-06T20:11:01.341Z,41.60
2018-04-06T20:13:29.993Z,42.00
2018-04-06T20:15:57.871Z,41.70
2018-04-06T20:18:25.393Z,41.70
2018-04-06T20:20:53.745Z,41.60
2018-04-06T20:23:23.837Z,42.20
2018-04-06T20:25:51.352Z,42.60
2018-04-06T20:28:20.640Z,42.50
2018-04-06T20:30:49.974Z,42.50
2018-04-06T20:33:19.006Z,43.30
2018-04-06T20:35:46.968Z,43.20
2018-04-06T20:38:15.213Z,43.70
2018-04-06T20:40:42.741Z,43.60
2018-04-06T20:43:11.453Z,43.60
2018-04-06T20:45:39.133Z,43.30
2018-04-06T20:48:06.628Z,42.90
2018-04-06T20:50:34.521Z,42.70
2018-04-06T20:53:02.099Z,43.30
2018-04-06T20:55:30.410Z,42.40
2018-04-06T20:58:00.634Z,42.70
2018-04-06T21:00:29.314Z,42.70
2018-04-06T21:03:00.895Z,42.60
2018-04-06T21:05:28.408Z,42.50
2018-04-06T21:07:55.879Z,44.20
2018-04-06T21:10:24.592Z,42.80
2018-04-06T21:12:53.293Z,43.70
2018-04-06T21:15:20.776Z,43.00
2018-04-06T21:17:48.944Z,43.40
2018-04-06T21:20:16.433Z,43.20
2018-04-06T21:22:53.812Z,43.40
2018-04-06T21:25:23.269Z,43.60
2018-04-06T21:27:51.558Z,43.60
2018-04-06T21:30:20.911Z,44.20
2018-04-06T21:32:49.176Z,43.20
2018-04-06T21:35:17.596Z,42.80
2018-04-06T21:37:45.982Z,43.10
2018-04-06T21:40:14.392Z,43.10
2018-04-06T21:42:42.973Z,43.10
2018-04-06T21:45:10.733Z,43.30
2018-04-06T21:47:38.231Z,43.80
2018-04-06T21:50:05.680Z,43.60
2018-04-06T21:52:33.923Z,44.40
2018-04-06T21:55:01.413Z,44.30
2018-04-06T21:57:29.672Z,43.90
2018-04-06T21:59:57.930Z,43.80
2018-04-06T22:02:25.440Z,43.70
2018-04-06T22:04:52.932Z,43.90
2018-04-06T22:07:20.397Z,44.40
2018-04-06T22:09:47.863Z,44.20
2018-04-06T22:12:15.321Z,44.10
2018-04-06T22:14:42.798Z,44.30
2018-04-06T22:17:11.069Z,44.80
2018-04-06T22:19:39.295Z,44.90
2018-04-06T22:22:07.006Z,44.80
2018-04-06T22:24:34.501Z,44.80
2018-04-06T22:27:02.008Z,44.50
2018-04-06T22:29:29.496Z,45.20
2018-04-06T22:31:56.968Z,44.50
2018-04-06T22:34:24.419Z,45.70
2018-04-06T22:36:51.889Z,45.30
2018-04-06T22:39:19.353Z,45.60
2018-04-06T22:41:46.796Z,45.40
2018-04-06T22:44:14.276Z,45.80
2018-04-06T22:46:41.748Z,45.80
2018-04-06T22:49:09.227Z,45.60
2018-04-06T22:51:37.476Z,45.80
2018-04-06T22:54:04.941Z,45.70
2018-04-06T22:56:32.376Z,45.40
2018-04-06T22:58:59.836Z,45.80
2018-04-06T23:01:27.318Z,45.40
2018-04-06T23:03:55.565Z,45.00
2018-04-06T23:06:23.016Z,44.90
2018-04-06T23:08:50.448Z,45.60
2018-04-06T23:11:17.920Z,45.60
2018-04-06T23:13:45.377Z,45.50
2018-04-06T23:16:12.820Z,45.30
2018-04-06T23:18:40.300Z,45.30
2018-04-06T23:21:07.741Z,45.00
2018-04-06T23:23:35.208Z,45.10
2018-04-06T23:26:02.680Z,45.30
2018-04-06T23:28:30.151Z,45.20
2018-04-06T23:30:57.605Z,45.30
2018-04-06T23:33:25.836Z,45.30
2018-04-06T23:35:53.311Z,45.20
2018-04-06T23:38:20.780Z,45.60
2018-04-06T23:40:48.228Z,45.00
2018-04-06T23:43:15.695Z,45.40
2018-04-06T23:45:43.148Z,46.70
2018-04-06T23:48:10.760Z,46.50
2018-04-06T23:50:38.243Z,46.10
2018-04-06T23:53:05.734Z,46.20
2018-04-06T23:55:33.951Z,47.00
2018-04-06T23:58:01.426Z,46.60
